createdAt,value
2022-10-01T00:05:41.025Z,98108.47
2022-10-01T00:08:14.237Z,98110.56
2022-10-01T00:10:49.078Z,98111.53
2022-10-01T00:13:22.314Z,98116.13
2022-10-01T00:15:48.889Z,98111.75
2022-10-01T00:18:29.018Z,98118.94
2022-10-01T00:21:10.266Z,98114.69
2022-10-01T00:34:06.961Z,98104.22
2022-10-01T00:36:49.017Z,98102.44
2022-10-01T00:39:22.198Z,98107.66
2022-10-01T00:41:55.995Z,98095.25
2022-10-01T00:44:34.984Z,98086.75
2022-10-01T00:47:30.981Z,98094.50
2022-10-01T01:00:45.019Z,98087.25
2022-10-01T01:03:18.053Z,98083.84
2022-10-01T01:05:44.617Z,98093.69
2022-10-01T01:08:25.002Z,98089.44
2022-10-01T01:11:11.530Z,98083.34
2022-10-01T01:27:43.068Z,98065.88
2022-10-01T01:30:19.034Z,98064.19
2022-10-01T01:32:59.978Z,98063.94
2022-10-01T01:35:40.936Z,98057.75
2022-10-01T01:38:28.025Z,98057.63
2022-10-01T01:41:04.879Z,98054.94
2022-10-01T01:54:02.027Z,98035.28
2022-10-01T01:56:42.014Z,98033.59
2022-10-01T01:59:16.062Z,98037.22
2022-10-01T02:01:51.147Z,98036.38
2022-10-01T02:04:30.915Z,98042.81
2022-10-01T02:21:10.985Z,98037.72
2022-10-01T02:23:52.052Z,98038.69
2022-10-01T02:26:36.992Z,98028.97
2022-10-01T02:29:16.809Z,98025.47
2022-10-01T02:32:00.989Z,98022.91
2022-10-01T02:48:37.954Z,98036.22
2022-10-01T02:51:34.298Z,98026.28
2022-10-01T02:54:17.270Z,98031.41
2022-10-01T02:56:56.975Z,98023.41
2022-10-01T02:59:30.128Z,98018.38
2022-10-01T03:01:56.963Z,98015.84
2022-10-01T03:14:53.964Z,97997.63
2022-10-01T03:17:34.469Z,98001.28
2022-10-01T03:20:09.511Z,97996.78
2022-10-01T03:22:42.991Z,97997.88
2022-10-01T03:25:16.916Z,98003.19
2022-10-01T03:41:32.336Z,97994.44
2022-10-01T03:44:06.110Z,98001.75
2022-10-01T03:46:38.983Z,98003.66
2022-10-01T03:49:25.928Z,98006.34
2022-10-01T03:52:05.998Z,98006.34
2022-10-01T03:54:41.867Z,98000.16
2022-10-01T03:57:16.974Z,98003.66
2022-10-01T04:07:01.953Z,97990.81
2022-10-01T04:09:42.017Z,97985.69
2022-10-01T04:12:17.302Z,97989.44
2022-10-01T04:14:49.999Z,97982.53
2022-10-01T04:17:23.209Z,97980.84
2022-10-01T04:19:49.753Z,97983.75
2022-10-01T04:22:30.998Z,97980.34
2022-10-01T04:35:39.979Z,97996.72
2022-10-01T04:38:11.498Z,97992.34
2022-10-01T04:40:51.991Z,97986.16
2022-10-01T04:43:25.037Z,97999.47
2022-10-01T04:45:51.586Z,97995.22
2022-10-01T05:02:14.037Z,97988.03
2022-10-01T05:04:46.983Z,97978.47
2022-10-01T05:07:13.642Z,97967.91
2022-10-01T05:09:53.973Z,97966.34
2022-10-01T05:12:28.135Z,97969.97
2022-10-01T05:15:03.066Z,97973.50
2022-10-01T05:17:38.163Z,97977.13
2022-10-01T05:27:01.358Z,97972.75
2022-10-01T05:29:34.004Z,97976.38
2022-10-01T05:32:08.004Z,97961.25
2022-10-01T05:34:43.069Z,97969.25
2022-10-01T05:37:15.971Z,97967.44
2022-10-01T05:39:49.021Z,97968.38
2022-10-01T05:42:22.975Z,97966.59
2022-10-01T05:55:35.992Z,97957.25
2022-10-01T05:58:12.716Z,97958.22
2022-10-01T06:00:52.953Z,97951.19
2022-10-01T06:03:26.147Z,97954.84
2022-10-01T06:05:52.694Z,97950.34
2022-10-01T06:22:13.989Z,97952.41
2022-10-01T06:24:47.202Z,97948.78
2022-10-01T06:27:13.854Z,97942.38
2022-10-01T06:29:54.829Z,97950.25
2022-10-01T06:32:31.593Z,97946.53
2022-10-01T06:35:13.994Z,97941.91
2022-10-01T06:48:26.981Z,97930.91
2022-10-01T06:51:00.061Z,97930.69
2022-10-01T06:53:34.994Z,97923.16
2022-10-01T06:56:08.251Z,97925.56
2022-10-01T06:58:34.830Z,97919.53
2022-10-01T07:01:16.021Z,97918.44
2022-10-01T07:14:26.980Z,97897.22
2022-10-01T07:17:00.411Z,97888.97
2022-10-01T07:19:33.965Z,97893.31
2022-10-01T07:22:07.387Z,97886.88
2022-10-01T07:24:40.987Z,97895.63
2022-10-01T07:27:14.266Z,97897.22
2022-10-01T07:40:29.939Z,97881.22
2022-10-01T07:43:09.976Z,97876.47
2022-10-01T07:45:44.627Z,97870.03
2022-10-01T07:48:18.972Z,97866.13
2022-10-01T07:50:52.167Z,97863.22
2022-10-01T07:53:25.982Z,97870.97
2022-10-01T07:56:03.001Z,97854.72
2022-10-01T08:08:57.924Z,97841.78
2022-10-01T08:11:39.957Z,97834.53
2022-10-01T08:14:13.538Z,97834.38
2022-10-01T08:16:47.026Z,97824.56
2022-10-01T08:19:20.022Z,97827.09
2022-10-01T08:21:46.578Z,97811.91
2022-10-01T08:34:43.918Z,97820.66
2022-10-01T08:37:23.991Z,97826.00
2022-10-01T08:39:57.175Z,97820.66
2022-10-01T08:42:53.956Z,97825.03
2022-10-01T08:45:37.937Z,97827.69
2022-10-01T09:02:00.939Z,97813.88
2022-10-01T09:04:34.179Z,97806.84
2022-10-01T09:07:25.973Z,97807.69
2022-10-01T09:10:20.141Z,97808.53
2022-10-01T09:13:24.949Z,97797.88
2022-10-01T09:16:10.793Z,97796.88
2022-10-01T09:29:11.923Z,97781.84
2022-10-01T09:31:57.080Z,97782.69
2022-10-01T09:34:37.350Z,97776.50
2022-10-01T09:37:31.879Z,97772.00
2022-10-01T09:40:19.299Z,97767.50
2022-10-01T09:56:48.962Z,97751.81
2022-10-01T09:59:30.194Z,97745.38
2022-10-01T10:02:23.699Z,97739.03
2022-10-01T10:05:01.142Z,97738.78
2022-10-01T10:07:40.952Z,97737.56
2022-10-01T10:21:04.930Z,97717.53
2022-10-01T10:23:47.934Z,97710.09
2022-10-01T10:26:35.373Z,97696.34
2022-10-01T10:29:27.009Z,97690.47
2022-10-01T10:32:17.017Z,97693.56
2022-10-01T10:34:58.874Z,97694.72
2022-10-01T10:47:49.935Z,97682.03
2022-10-01T10:50:42.954Z,97680.50
2022-10-01T10:53:24.052Z,97678.28
2022-10-01T10:58:36.570Z,97673.22
2022-10-01T11:01:08.837Z,97672.94
2022-10-01T11:14:41.913Z,97644.25
2022-10-01T11:17:49.957Z,97647.63
2022-10-01T11:20:40.110Z,97632.56
2022-10-01T11:23:58.947Z,97636.34
2022-10-01T11:26:48.212Z,97626.50
2022-10-01T11:43:27.811Z,97629.00
2022-10-01T11:46:11.624Z,97633.53
2022-10-01T11:48:56.943Z,97627.34
2022-10-01T11:51:40.979Z,97624.09
2022-10-01T11:54:28.953Z,97633.25
2022-10-01T11:57:04.780Z,97633.50
2022-10-01T12:10:08.919Z,97628.69
2022-10-01T12:12:59.971Z,97636.16
2022-10-01T12:15:44.574Z,97632.03
2022-10-01T12:18:34.966Z,97628.94
2022-10-01T12:21:19.846Z,97621.91
2022-10-01T12:34:54.193Z,97620.72
2022-10-01T12:38:02.919Z,97625.50
2022-10-01T12:40:45.905Z,97612.53
2022-10-01T12:44:18.314Z,97628.00
2022-10-01T12:47:14.046Z,97626.72
2022-10-01T13:04:14.954Z,97629.88
2022-10-01T13:07:13.482Z,97628.19
2022-10-01T13:10:11.924Z,97628.47
2022-10-01T13:13:03.054Z,97630.16
2022-10-01T13:15:46.952Z,97635.75
2022-10-01T13:29:18.933Z,97630.72
2022-10-01T13:31:56.965Z,97624.63
2022-10-01T13:34:45.922Z,97620.28
2022-10-01T13:37:34.167Z,97616.88
2022-10-01T13:40:30.947Z,97625.91
2022-10-01T13:57:16.902Z,97601.13
2022-10-01T14:00:05.968Z,97600.28
2022-10-01T14:02:42.351Z,97590.44
2022-10-01T14:05:39.924Z,97590.44
2022-10-01T14:08:24.385Z,97594.09
2022-10-01T14:11:10.948Z,97584.38
2022-10-01T14:21:40.886Z,97585.38
2022-10-01T14:24:36.978Z,97580.16
2022-10-01T14:27:24.622Z,97572.28
2022-10-01T14:30:17.965Z,97557.25
2022-10-01T14:33:15.991Z,97541.22
2022-10-01T14:36:08.939Z,97515.50
2022-10-01T14:49:36.218Z,97563.66
2022-10-01T14:52:20.403Z,97569.00
2022-10-01T14:55:08.970Z,97562.94
2022-10-01T14:57:46.961Z,97561.38
2022-10-01T15:00:29.911Z,97567.56
2022-10-01T15:17:09.893Z,97549.53
2022-10-01T15:19:52.949Z,97550.41
2022-10-01T15:22:29.649Z,97550.41
2022-10-01T15:25:11.946Z,97541.41
2022-10-01T15:27:45.223Z,97546.75
2022-10-01T15:30:20.934Z,97552.34
2022-10-01T15:32:56.652Z,97558.66
2022-10-01T15:42:30.923Z,97554.84
2022-10-01T15:45:24.019Z,97553.16
2022-10-01T15:48:05.940Z,97542.59
2022-10-01T15:50:40.535Z,97556.06
2022-10-01T15:53:26.306Z,97551.72
2022-10-01T15:56:08.774Z,97552.81
2022-10-01T16:09:20.886Z,97552.22
2022-10-01T16:12:03.915Z,97559.25
2022-10-01T16:14:40.193Z,97569.09
2022-10-01T16:17:37.901Z,97565.56
2022-10-01T16:20:36.871Z,97557.56
2022-10-01T16:37:06.126Z,97573.38
2022-10-01T16:39:39.079Z,97591.09
2022-10-01T16:42:23.876Z,97585.75
2022-10-01T16:44:58.014Z,97581.38
2022-10-01T16:47:30.914Z,97582.34
2022-10-01T16:50:09.563Z,97587.94
2022-10-01T17:03:06.945Z,97589.91
2022-10-01T17:05:39.986Z,97586.38
2022-10-01T17:08:06.666Z,97581.03
2022-10-01T17:10:50.910Z,97594.28
2022-10-01T17:13:25.003Z,97592.56
2022-10-01T17:15:57.986Z,97590.88
2022-10-01T17:18:32.985Z,97583.00
2022-10-01T17:31:20.963Z,97600.59
2022-10-01T17:34:02.949Z,97604.28
2022-10-01T17:36:38.182Z,97599.03
2022-10-01T17:39:10.935Z,97610.59
2022-10-01T17:41:43.974Z,97602.56
2022-10-01T17:58:00.321Z,97631.47
2022-10-01T18:00:33.449Z,97626.13
2022-10-01T18:03:06.962Z,97639.47
2022-10-01T18:05:39.984Z,97635.09
2022-10-01T18:08:06.534Z,97651.09
2022-10-01T18:24:27.930Z,97661.63
2022-10-01T18:27:01.113Z,97664.31
2022-10-01T18:29:34.905Z,97665.13
2022-10-01T18:32:17.740Z,97667.69
2022-10-01T18:35:01.894Z,97666.84
2022-10-01T18:37:43.877Z,97673.03
2022-10-01T18:50:49.873Z,97662.97
2022-10-01T18:53:53.909Z,97673.63
2022-10-01T18:56:31.652Z,97669.97
2022-10-01T19:00:05.947Z,97673.72
2022-10-01T19:03:12.532Z,97675.56
2022-10-01T19:16:28.937Z,97669.00
2022-10-01T19:19:31.923Z,97680.53
2022-10-01T19:22:18.180Z,97674.22
2022-10-01T19:25:17.921Z,97684.91
2022-10-01T19:28:10.709Z,97679.44
2022-10-01T19:31:06.976Z,97686.56
2022-10-01T19:33:51.453Z,97679.56
2022-10-01T19:43:28.905Z,97691.06
2022-10-01T19:46:10.291Z,97707.06
2022-10-01T19:48:58.898Z,97711.44
2022-10-01T19:51:36.540Z,97713.25
2022-10-01T19:54:23.517Z,97720.28
2022-10-01T19:57:04.345Z,97716.78
2022-10-01T20:10:13.866Z,97732.03
2022-10-01T20:13:13.908Z,97730.34
2022-10-01T20:16:01.629Z,97731.31
2022-10-01T20:18:57.878Z,97742.72
2022-10-01T20:21:45.957Z,97751.69
2022-10-01T20:38:14.905Z,97768.78
2022-10-01T20:40:55.085Z,97768.78
2022-10-01T20:43:43.889Z,97773.28
2022-10-01T20:46:36.629Z,97780.56
2022-10-01T20:49:29.896Z,97779.72
2022-10-01T20:52:17.517Z,97787.00
2022-10-01T21:05:23.846Z,97800.94
2022-10-01T21:08:08.882Z,97811.75
2022-10-01T21:10:51.310Z,97818.06
2022-10-01T21:13:44.891Z,97827.84
2022-10-01T21:16:50.704Z,97820.81
2022-10-01T21:30:12.846Z,97844.13
2022-10-01T21:33:20.914Z,97832.84
2022-10-01T21:36:04.629Z,97847.75
2022-10-01T21:38:53.901Z,97863.75
2022-10-01T21:41:41.579Z,97869.06
2022-10-01T21:58:35.942Z,97888.84
2022-10-01T22:01:21.548Z,97887.00
2022-10-01T22:04:22.251Z,97903.00
2022-10-01T22:07:11.273Z,97911.00
2022-10-01T22:10:09.876Z,97911.00
2022-10-01T22:12:48.086Z,97919.00
2022-10-01T22:25:54.857Z,97945.56
2022-10-01T22:28:42.909Z,97946.41
2022-10-01T22:31:22.236Z,97950.78
2022-10-01T22:34:07.896Z,97963.16
2022-10-01T22:36:48.506Z,97954.16
2022-10-01T22:50:25.854Z,97972.75
2022-10-01T22:53:27.884Z,97979.78
2022-10-01T22:56:02.461Z,97997.56
2022-10-01T22:59:04.924Z,98003.88
2022-10-01T23:01:52.810Z,97988.75
2022-10-01T23:18:32.889Z,98018.78
2022-10-01T23:21:22.866Z,98023.03
2022-10-01T23:24:20.883Z,98034.44
2022-10-01T23:27:08.761Z,98042.44
2022-10-01T23:30:12.902Z,98050.44
2022-10-01T23:33:23.505Z,98053.97
2022-10-01T23:43:33.890Z,98067.19
2022-10-01T23:46:14.244Z,98069.88
2022-10-01T23:49:06.883Z,98076.16
2022-10-01T23:51:47.974Z,98077.13
2022-10-01T23:54:35.870Z,98080.66
2022-10-01T23:57:17.181Z,98091.34
